sensor_id;sensor_type;location;lat;lon;timestamp;P1;durP1;ratioP1;P2;durP2;ratioP2
73136;SDS011;67767;45.636;11.756;2023-04-03T00:01:31;17.38;;;10.90;;
73136;SDS011;67767;45.636;11.756;2023-04-03T00:03:57;20.33;;;11.50;;
73136;SDS011;67767;45.636;11.756;2023-04-03T00:06:24;18.13;;;11.73;;
73136;SDS011;67767;45.636;11.756;2023-04-03T00:08:50;17.83;;;11.13;;
73136;SDS011;67767;45.636;11.756;2023-04-03T00:11:16;19.92;;;11.38;;
73136;SDS011;67767;45.636;11.756;2023-04-03T00:13:43;18.27;;;11.40;;
73136;SDS011;67767;45.636;11.756;2023-04-03T00:16:09;17.83;;;11.13;;
73136;SDS011;67767;45.636;11.756;2023-04-03T00:18:35;18.92;;;11.45;;
73136;SDS011;67767;45.636;11.756;2023-04-03T00:21:04;19.43;;;11.00;;
73136;SDS011;67767;45.636;11.756;2023-04-03T00:23:31;18.40;;;11.10;;
73136;SDS011;67767;45.636;11.756;2023-04-03T00:25:57;19.83;;;10.63;;
73136;SDS011;67767;45.636;11.756;2023-04-03T00:28:22;15.97;;;9.80;;
73136;SDS011;67767;45.636;11.756;2023-04-03T00:30:49;17.63;;;10.48;;
73136;SDS011;67767;45.636;11.756;2023-04-03T00:33:15;17.02;;;10.00;;
73136;SDS011;67767;45.636;11.756;2023-04-03T00:35:42;18.00;;;9.73;;
73136;SDS011;67767;45.636;11.756;2023-04-03T00:38:08;16.67;;;9.83;;
73136;SDS011;67767;45.636;11.756;2023-04-03T00:40:35;17.45;;;8.93;;
73136;SDS011;67767;45.636;11.756;2023-04-03T00:43:05;15.60;;;8.77;;
73136;SDS011;67767;45.636;11.756;2023-04-03T00:45:39;15.93;;;8.95;;
73136;SDS011;67767;45.636;11.756;2023-04-03T00:48:10;14.57;;;8.65;;
73136;SDS011;67767;45.636;11.756;2023-04-03T00:50:40;14.30;;;8.40;;
73136;SDS011;67767;45.636;11.756;2023-04-03T00:53:08;13.93;;;7.97;;
73136;SDS011;67767;45.636;11.756;2023-04-03T00:55:43;14.15;;;8.27;;
73136;SDS011;67767;45.636;11.756;2023-04-03T00:58:10;13.10;;;8.65;;
73136;SDS011;67767;45.636;11.756;2023-04-03T01:00:40;13.93;;;8.55;;
73136;SDS011;67767;45.636;11.756;2023-04-03T01:03:11;15.23;;;8.53;;
73136;SDS011;67767;45.636;11.756;2023-04-03T01:05:37;16.95;;;8.95;;
73136;SDS011;67767;45.636;11.756;2023-04-03T01:08:03;13.93;;;8.48;;
73136;SDS011;67767;45.636;11.756;2023-04-03T01:10:29;15.43;;;8.30;;
73136;SDS011;67767;45.636;11.756;2023-04-03T01:12:54;15.35;;;8.45;;
73136;SDS011;67767;45.636;11.756;2023-04-03T01:15:22;14.73;;;7.88;;
73136;SDS011;67767;45.636;11.756;2023-04-03T01:17:57;12.53;;;7.70;;
73136;SDS011;67767;45.636;11.756;2023-04-03T01:25:38;13.13;;;7.45;;
73136;SDS011;67767;45.636;11.756;2023-04-03T01:28:05;13.45;;;6.80;;
73136;SDS011;67767;45.636;11.756;2023-04-03T01:30:41;14.50;;;7.80;;
73136;SDS011;67767;45.636;11.756;2023-04-03T01:33:11;14.73;;;7.22;;
73136;SDS011;67767;45.636;11.756;2023-04-03T01:35:37;10.65;;;6.55;;
73136;SDS011;67767;45.636;11.756;2023-04-03T01:38:03;11.10;;;6.32;;
73136;SDS011;67767;45.636;11.756;2023-04-03T01:40:29;10.77;;;5.90;;
73136;SDS011;67767;45.636;11.756;2023-04-03T01:42:55;10.80;;;6.03;;
73136;SDS011;67767;45.636;11.756;2023-04-03T01:45:20;10.67;;;6.00;;
73136;SDS011;67767;45.636;11.756;2023-04-03T01:47:46;11.63;;;5.95;;
73136;SDS011;67767;45.636;11.756;2023-04-03T01:50:12;13.40;;;6.63;;
73136;SDS011;67767;45.636;11.756;2023-04-03T01:52:37;17.50;;;7.10;;
73136;SDS011;67767;45.636;11.756;2023-04-03T01:55:03;12.93;;;6.70;;
73136;SDS011;67767;45.636;11.756;2023-04-03T01:57:29;10.15;;;5.30;;
73136;SDS011;67767;45.636;11.756;2023-04-03T01:59:55;17.67;;;6.45;;
73136;SDS011;67767;45.636;11.756;2023-04-03T02:02:21;12.93;;;6.07;;
73136;SDS011;67767;45.636;11.756;2023-04-03T02:04:46;10.10;;;5.93;;
73136;SDS011;67767;45.636;11.756;2023-04-03T02:07:12;17.88;;;6.88;;
73136;SDS011;67767;45.636;11.756;2023-04-03T02:09:37;13.43;;;6.40;;
73136;SDS011;67767;45.636;11.756;2023-04-03T02:12:03;10.18;;;5.75;;
73136;SDS011;67767;45.636;11.756;2023-04-03T02:14:29;10.20;;;6.10;;
73136;SDS011;67767;45.636;11.756;2023-04-03T02:16:55;20.98;;;7.35;;
73136;SDS011;67767;45.636;11.756;2023-04-03T02:19:20;12.47;;;6.10;;
73136;SDS011;67767;45.636;11.756;2023-04-03T02:21:46;12.82;;;5.88;;
73136;SDS011;67767;45.636;11.756;2023-04-03T02:24:12;15.73;;;6.40;;
73136;SDS011;67767;45.636;11.756;2023-04-03T02:26:37;12.23;;;6.15;;
73136;SDS011;67767;45.636;11.756;2023-04-03T02:29:03;10.70;;;5.70;;
73136;SDS011;67767;45.636;11.756;2023-04-03T02:31:29;9.90;;;5.10;;
73136;SDS011;67767;45.636;11.756;2023-04-03T02:33:54;10.20;;;5.10;;
73136;SDS011;67767;45.636;11.756;2023-04-03T02:36:20;9.82;;;3.55;;
73136;SDS011;67767;45.636;11.756;2023-04-03T02:38:46;8.80;;;3.73;;
73136;SDS011;67767;45.636;11.756;2023-04-03T02:41:13;10.25;;;4.18;;
73136;SDS011;67767;45.636;11.756;2023-04-03T02:43:39;9.38;;;4.10;;
73136;SDS011;67767;45.636;11.756;2023-04-03T02:46:04;9.10;;;3.50;;
73136;SDS011;67767;45.636;11.756;2023-04-03T02:48:31;8.65;;;3.65;;
73136;SDS011;67767;45.636;11.756;2023-04-03T02:50:58;8.80;;;4.72;;
73136;SDS011;67767;45.636;11.756;2023-04-03T02:53:23;8.97;;;4.00;;
73136;SDS011;67767;45.636;11.756;2023-04-03T02:55:49;7.77;;;3.60;;
73136;SDS011;67767;45.636;11.756;2023-04-03T02:58:15;8.60;;;3.22;;
73136;SDS011;67767;45.636;11.756;2023-04-03T03:00:41;8.70;;;3.50;;
73136;SDS011;67767;45.636;11.756;2023-04-03T03:03:06;11.07;;;7.10;;
73136;SDS011;67767;45.636;11.756;2023-04-03T03:05:32;10.50;;;3.97;;
73136;SDS011;67767;45.636;11.756;2023-04-03T03:07:58;7.43;;;3.60;;
73136;SDS011;67767;45.636;11.756;2023-04-03T03:10:24;11.18;;;4.72;;
73136;SDS011;67767;45.636;11.756;2023-04-03T03:12:49;10.47;;;4.43;;
73136;SDS011;67767;45.636;11.756;2023-04-03T03:15:15;10.55;;;4.68;;
73136;SDS011;67767;45.636;11.756;2023-04-03T03:17:42;12.07;;;5.05;;
73136;SDS011;67767;45.636;11.756;2023-04-03T03:20:08;10.57;;;4.70;;
73136;SDS011;67767;45.636;11.756;2023-04-03T03:22:34;10.32;;;5.18;;
73136;SDS011;67767;45.636;11.756;2023-04-03T03:25:00;8.43;;;4.07;;
73136;SDS011;67767;45.636;11.756;2023-04-03T03:27:27;10.90;;;4.25;;
73136;SDS011;67767;45.636;11.756;2023-04-03T03:29:53;11.20;;;4.70;;
73136;SDS011;67767;45.636;11.756;2023-04-03T03:32:19;10.80;;;4.30;;
73136;SDS011;67767;45.636;11.756;2023-04-03T03:34:44;13.50;;;4.65;;
73136;SDS011;67767;45.636;11.756;2023-04-03T03:37:10;8.87;;;4.00;;
73136;SDS011;67767;45.636;11.756;2023-04-03T03:39:36;10.02;;;4.05;;
73136;SDS011;67767;45.636;11.756;2023-04-03T03:42:01;9.30;;;4.13;;
73136;SDS011;67767;45.636;11.756;2023-04-03T03:44:27;9.57;;;3.77;;
73136;SDS011;67767;45.636;11.756;2023-04-03T03:46:54;8.13;;;4.15;;
73136;SDS011;67767;45.636;11.756;2023-04-03T03:49:20;8.35;;;3.90;;
73136;SDS011;67767;45.636;11.756;2023-04-03T03:51:46;9.88;;;4.20;;
73136;SDS011;67767;45.636;11.756;2023-04-03T03:54:12;8.80;;;4.27;;
73136;SDS011;67767;45.636;11.756;2023-04-03T03:56:38;9.77;;;3.95;;
73136;SDS011;67767;45.636;11.756;2023-04-03T03:59:04;8.75;;;3.80;;
73136;SDS011;67767;45.636;11.756;2023-04-03T04:01:30;9.32;;;3.65;;
73136;SDS011;67767;45.636;11.756;2023-04-03T04:03:56;11.37;;;4.00;;
73136;SDS011;67767;45.636;11.756;2023-04-03T04:06:22;13.85;;;3.88;;
73136;SDS011;67767;45.636;11.756;2023-04-03T04:08:48;10.40;;;3.97;;
73136;SDS011;67767;45.636;11.756;2023-04-03T04:11:13;8.75;;;3.83;;
73136;SDS011;67767;45.636;11.756;2023-04-03T04:13:39;7.50;;;3.47;;
73136;SDS011;67767;45.636;11.756;2023-04-03T04:16:05;15.32;;;3.97;;
73136;SDS011;67767;45.636;11.756;2023-04-03T04:18:32;13.57;;;4.97;;
73136;SDS011;67767;45.636;11.756;2023-04-03T04:20:58;10.18;;;3.95;;
73136;SDS011;67767;45.636;11.756;2023-04-03T04:23:23;11.63;;;4.80;;
73136;SDS011;67767;45.636;11.756;2023-04-03T04:25:50;9.32;;;3.50;;
73136;SDS011;67767;45.636;11.756;2023-04-03T04:28:16;8.75;;;3.90;;
73136;SDS011;67767;45.636;11.756;2023-04-03T04:30:43;7.67;;;3.93;;
73136;SDS011;67767;45.636;11.756;2023-04-03T04:33:08;9.60;;;3.92;;
73136;SDS011;67767;45.636;11.756;2023-04-03T04:35:35;8.43;;;3.72;;
73136;SDS011;67767;45.636;11.756;2023-04-03T04:38:00;11.10;;;3.63;;
73136;SDS011;67767;45.636;11.756;2023-04-03T04:40:26;9.40;;;3.57;;
73136;SDS011;67767;45.636;11.756;2023-04-03T04:42:52;7.78;;;3.60;;
73136;SDS011;67767;45.636;11.756;2023-04-03T04:45:17;8.83;;;3.20;;
73136;SDS011;67767;45.636;11.756;2023-04-03T04:47:43;8.00;;;3.50;;
73136;SDS011;67767;45.636;11.756;2023-04-03T04:50:09;9.17;;;3.60;;
73136;SDS011;67767;45.636;11.756;2023-04-03T04:52:36;8.93;;;3.70;;
73136;SDS011;67767;45.636;11.756;2023-04-03T04:55:02;10.00;;;3.80;;
73136;SDS011;67767;45.636;11.756;2023-04-03T04:57:28;8.52;;;3.40;;
73136;SDS011;67767;45.636;11.756;2023-04-03T04:59:54;13.20;;;4.43;;
73136;SDS011;67767;45.636;11.756;2023-04-03T05:02:20;14.27;;;4.57;;
73136;SDS011;67767;45.636;11.756;2023-04-03T05:04:46;11.60;;;4.43;;
73136;SDS011;67767;45.636;11.756;2023-04-03T05:07:11;11.70;;;3.83;;
73136;SDS011;67767;45.636;11.756;2023-04-03T05:09:37;9.65;;;3.60;;
73136;SDS011;67767;45.636;11.756;2023-04-03T05:12:03;7.70;;;3.60;;
73136;SDS011;67767;45.636;11.756;2023-04-03T05:14:29;10.50;;;3.50;;
73136;SDS011;67767;45.636;11.756;2023-04-03T05:16:55;10.45;;;4.18;;
73136;SDS011;67767;45.636;11.756;2023-04-03T05:19:21;13.90;;;4.07;;
73136;SDS011;67767;45.636;11.756;2023-04-03T05:21:47;8.80;;;3.40;;
73136;SDS011;67767;45.636;11.756;2023-04-03T05:24:13;11.35;;;3.55;;
73136;SDS011;67767;45.636;11.756;2023-04-03T05:26:40;9.57;;;3.40;;
73136;SDS011;67767;45.636;11.756;2023-04-03T05:29:07;10.32;;;3.60;;
73136;SDS011;67767;45.636;11.756;2023-04-03T05:31:33;13.88;;;5.90;;
73136;SDS011;67767;45.636;11.756;2023-04-03T05:33:59;11.93;;;3.85;;
73136;SDS011;67767;45.636;11.756;2023-04-03T05:36:25;13.37;;;4.00;;
73136;SDS011;67767;45.636;11.756;2023-04-03T05:38:51;11.73;;;3.40;;
73136;SDS011;67767;45.636;11.756;2023-04-03T05:41:17;6.85;;;3.13;;
73136;SDS011;67767;45.636;11.756;2023-04-03T05:43:42;7.80;;;3.37;;
73136;SDS011;67767;45.636;11.756;2023-04-03T05:46:11;9.25;;;3.60;;
73136;SDS011;67767;45.636;11.756;2023-04-03T05:48:38;9.30;;;3.47;;
73136;SDS011;67767;45.636;11.756;2023-04-03T05:51:05;9.60;;;3.10;;
73136;SDS011;67767;45.636;11.756;2023-04-03T05:53:32;6.15;;;2.97;;
73136;SDS011;67767;45.636;11.756;2023-04-03T05:56:02;11.98;;;3.35;;
73136;SDS011;67767;45.636;11.756;2023-04-03T05:58:28;10.20;;;3.35;;
73136;SDS011;67767;45.636;11.756;2023-04-03T06:00:54;7.97;;;2.50;;
73136;SDS011;67767;45.636;11.756;2023-04-03T06:03:20;9.70;;;3.13;;
73136;SDS011;67767;45.636;11.756;2023-04-03T06:05:45;11.17;;;3.30;;
73136;SDS011;67767;45.636;11.756;2023-04-03T06:08:11;14.25;;;2.90;;
73136;SDS011;67767;45.636;11.756;2023-04-03T06:10:37;15.43;;;3.42;;
73136;SDS011;67767;45.636;11.756;2023-04-03T06:13:03;9.27;;;3.10;;
73136;SDS011;67767;45.636;11.756;2023-04-03T06:15:29;7.20;;;2.63;;
73136;SDS011;67767;45.636;11.756;2023-04-03T06:17:55;5.80;;;3.00;;
73136;SDS011;67767;45.636;11.756;2023-04-03T06:20:21;8.13;;;2.80;;
73136;SDS011;67767;45.636;11.756;2023-04-03T06:22:47;15.73;;;4.70;;
73136;SDS011;67767;45.636;11.756;2023-04-03T06:25:13;9.63;;;3.97;;
73136;SDS011;67767;45.636;11.756;2023-04-03T06:27:39;8.05;;;3.47;;
73136;SDS011;67767;45.636;11.756;2023-04-03T06:30:06;6.90;;;3.17;;
73136;SDS011;67767;45.636;11.756;2023-04-03T06:32:32;10.20;;;2.80;;
73136;SDS011;67767;45.636;11.756;2023-04-03T06:34:58;8.00;;;2.92;;
73136;SDS011;67767;45.636;11.756;2023-04-03T06:37:24;6.60;;;2.40;;
73136;SDS011;67767;45.636;11.756;2023-04-03T06:39:54;6.90;;;2.72;;
73136;SDS011;67767;45.636;11.756;2023-04-03T06:42:20;6.27;;;2.80;;
73136;SDS011;67767;45.636;11.756;2023-04-03T06:44:46;4.90;;;2.13;;
73136;SDS011;67767;45.636;11.756;2023-04-03T06:47:15;8.20;;;2.58;;
73136;SDS011;67767;45.636;11.756;2023-04-03T06:49:42;6.45;;;2.40;;
73136;SDS011;67767;45.636;11.756;2023-04-03T06:52:08;9.97;;;3.00;;
73136;SDS011;67767;45.636;11.756;2023-04-03T06:54:34;8.45;;;3.22;;
73136;SDS011;67767;45.636;11.756;2023-04-03T06:57:01;7.75;;;2.47;;
73136;SDS011;67767;45.636;11.756;2023-04-03T06:59:27;5.63;;;2.30;;
73136;SDS011;67767;45.636;11.756;2023-04-03T07:01:52;8.87;;;2.33;;
73136;SDS011;67767;45.636;11.756;2023-04-03T07:04:18;6.07;;;2.40;;
73136;SDS011;67767;45.636;11.756;2023-04-03T07:06:45;7.25;;;2.20;;
73136;SDS011;67767;45.636;11.756;2023-04-03T07:09:12;9.33;;;2.20;;
73136;SDS011;67767;45.636;11.756;2023-04-03T07:11:39;10.50;;;2.90;;
73136;SDS011;67767;45.636;11.756;2023-04-03T07:14:04;9.57;;;3.20;;
73136;SDS011;67767;45.636;11.756;2023-04-03T07:16:32;10.63;;;2.30;;
73136;SDS011;67767;45.636;11.756;2023-04-03T07:18:58;6.97;;;2.67;;
73136;SDS011;67767;45.636;11.756;2023-04-03T07:21:24;6.38;;;3.35;;
73136;SDS011;67767;45.636;11.756;2023-04-03T07:23:50;6.38;;;2.10;;
73136;SDS011;67767;45.636;11.756;2023-04-03T07:26:16;4.53;;;1.80;;
73136;SDS011;67767;45.636;11.756;2023-04-03T07:28:42;5.43;;;2.40;;
73136;SDS011;67767;45.636;11.756;2023-04-03T07:31:11;6.33;;;2.00;;
73136;SDS011;67767;45.636;11.756;2023-04-03T07:33:39;5.93;;;1.88;;
73136;SDS011;67767;45.636;11.756;2023-04-03T07:36:05;7.53;;;1.92;;
73136;SDS011;67767;45.636;11.756;2023-04-03T07:38:32;6.03;;;1.77;;
73136;SDS011;67767;45.636;11.756;2023-04-03T07:40:59;8.82;;;2.38;;
73136;SDS011;67767;45.636;11.756;2023-04-03T07:43:24;5.20;;;1.50;;
73136;SDS011;67767;45.636;11.756;2023-04-03T07:45:50;6.90;;;2.00;;
73136;SDS011;67767;45.636;11.756;2023-04-03T07:48:17;7.60;;;2.10;;
73136;SDS011;67767;45.636;11.756;2023-04-03T07:50:44;11.83;;;2.10;;
73136;SDS011;67767;45.636;11.756;2023-04-03T07:53:10;6.28;;;1.92;;
73136;SDS011;67767;45.636;11.756;2023-04-03T07:55:36;7.97;;;1.90;;
73136;SDS011;67767;45.636;11.756;2023-04-03T07:58:08;9.87;;;2.10;;
73136;SDS011;67767;45.636;11.756;2023-04-03T08:00:38;4.65;;;1.70;;
73136;SDS011;67767;45.636;11.756;2023-04-03T08:03:04;6.18;;;2.17;;
73136;SDS011;67767;45.636;11.756;2023-04-03T08:05:30;8.77;;;2.00;;
73136;SDS011;67767;45.636;11.756;2023-04-03T08:07:57;6.53;;;1.95;;
73136;SDS011;67767;45.636;11.756;2023-04-03T08:10:22;5.77;;;2.00;;
73136;SDS011;67767;45.636;11.756;2023-04-03T08:12:48;7.53;;;2.17;;
73136;SDS011;67767;45.636;11.756;2023-04-03T08:15:14;12.33;;;2.43;;
73136;SDS011;67767;45.636;11.756;2023-04-03T08:17:40;10.65;;;2.25;;
73136;SDS011;67767;45.636;11.756;2023-04-03T08:20:06;5.65;;;2.00;;
73136;SDS011;67767;45.636;11.756;2023-04-03T08:22:33;5.83;;;2.03;;
73136;SDS011;67767;45.636;11.756;2023-04-03T08:24:59;6.80;;;2.13;;
73136;SDS011;67767;45.636;11.756;2023-04-03T08:27:26;6.53;;;2.03;;
73136;SDS011;67767;45.636;11.756;2023-04-03T08:29:53;6.78;;;2.00;;
73136;SDS011;67767;45.636;11.756;2023-04-03T08:32:19;6.05;;;2.10;;
73136;SDS011;67767;45.636;11.756;2023-04-03T08:34:45;10.17;;;2.50;;
73136;SDS011;67767;45.636;11.756;2023-04-03T08:37:12;5.75;;;2.20;;
73136;SDS011;67767;45.636;11.756;2023-04-03T08:39:39;7.93;;;3.00;;
73136;SDS011;67767;45.636;11.756;2023-04-03T08:42:05;4.47;;;1.60;;
73136;SDS011;67767;45.636;11.756;2023-04-03T08:45:15;7.30;;;2.00;;
73136;SDS011;67767;45.636;11.756;2023-04-03T08:48:08;5.88;;;2.10;;
73136;SDS011;67767;45.636;11.756;2023-04-03T08:50:41;6.07;;;2.00;;
73136;SDS011;67767;45.636;11.756;2023-04-03T08:53:12;6.23;;;1.70;;
73136;SDS011;67767;45.636;11.756;2023-04-03T08:55:45;11.43;;;2.25;;
73136;SDS011;67767;45.636;11.756;2023-04-03T08:58:16;8.40;;;2.60;;
73136;SDS011;67767;45.636;11.756;2023-04-03T09:00:46;5.65;;;1.98;;
73136;SDS011;67767;45.636;11.756;2023-04-03T09:03:13;7.85;;;1.98;;
73136;SDS011;67767;45.636;11.756;2023-04-03T09:08:28;8.88;;;2.17;;
73136;SDS011;67767;45.636;11.756;2023-04-03T09:11:06;6.20;;;1.92;;
73136;SDS011;67767;45.636;11.756;2023-04-03T09:14:17;5.55;;;2.17;;
73136;SDS011;67767;45.636;11.756;2023-04-03T09:19:02;4.77;;;2.07;;
73136;SDS011;67767;45.636;11.756;2023-04-03T09:21:40;7.93;;;2.00;;
73136;SDS011;67767;45.636;11.756;2023-04-03T09:24:07;5.57;;;1.70;;
73136;SDS011;67767;45.636;11.756;2023-04-03T09:26:39;4.68;;;1.60;;
73136;SDS011;67767;45.636;11.756;2023-04-03T09:29:10;5.57;;;2.00;;
73136;SDS011;67767;45.636;11.756;2023-04-03T09:31:44;7.90;;;2.60;;
73136;SDS011;67767;45.636;11.756;2023-04-03T09:36:54;4.80;;;1.77;;
73136;SDS011;67767;45.636;11.756;2023-04-03T09:39:26;5.13;;;2.00;;
73136;SDS011;67767;45.636;11.756;2023-04-03T09:42:26;5.97;;;1.65;;
73136;SDS011;67767;45.636;11.756;2023-04-03T09:44:54;5.97;;;2.13;;
73136;SDS011;67767;45.636;11.756;2023-04-03T09:47:26;5.55;;;2.45;;
73136;SDS011;67767;45.636;11.756;2023-04-03T09:52:38;6.53;;;2.15;;
73136;SDS011;67767;45.636;11.756;2023-04-03T09:55:18;9.10;;;2.17;;
73136;SDS011;67767;45.636;11.756;2023-04-03T09:57:51;7.57;;;2.40;;
73136;SDS011;67767;45.636;11.756;2023-04-03T10:02:59;6.82;;;2.55;;
73136;SDS011;67767;45.636;11.756;2023-04-03T10:05:31;10.20;;;2.45;;
73136;SDS011;67767;45.636;11.756;2023-04-03T10:08:09;6.07;;;2.10;;
73136;SDS011;67767;45.636;11.756;2023-04-03T10:10:42;4.93;;;2.10;;
73136;SDS011;67767;45.636;11.756;2023-04-03T10:13:16;4.75;;;2.00;;
73136;SDS011;67767;45.636;11.756;2023-04-03T10:18:44;8.90;;;2.72;;
73136;SDS011;67767;45.636;11.756;2023-04-03T10:24:10;6.87;;;1.90;;
73136;SDS011;67767;45.636;11.756;2023-04-03T10:29:42;4.88;;;1.80;;
73136;SDS011;67767;45.636;11.756;2023-04-03T10:32:38;5.95;;;2.10;;
73136;SDS011;67767;45.636;11.756;2023-04-03T10:38:16;6.43;;;1.90;;
73136;SDS011;67767;45.636;11.756;2023-04-03T10:48:57;6.53;;;2.85;;
73136;SDS011;67767;45.636;11.756;2023-04-03T10:56:58;3.88;;;2.05;;
73136;SDS011;67767;45.636;11.756;2023-04-03T10:59:45;8.35;;;2.40;;
73136;SDS011;67767;45.636;11.756;2023-04-03T11:02:30;6.45;;;2.20;;
73136;SDS011;67767;45.636;11.756;2023-04-03T11:05:06;6.30;;;2.40;;
73136;SDS011;67767;45.636;11.756;2023-04-03T11:07:53;5.90;;;2.38;;
73136;SDS011;67767;45.636;11.756;2023-04-03T11:10:23;6.85;;;2.25;;
73136;SDS011;67767;45.636;11.756;2023-04-03T11:13:02;5.57;;;2.30;;
73136;SDS011;67767;45.636;11.756;2023-04-03T11:15:38;7.28;;;2.33;;
73136;SDS011;67767;45.636;11.756;2023-04-03T11:18:06;7.70;;;2.50;;
73136;SDS011;67767;45.636;11.756;2023-04-03T11:20:37;8.23;;;2.60;;
73136;SDS011;67767;45.636;11.756;2023-04-03T11:23:30;6.18;;;2.10;;
73136;SDS011;67767;45.636;11.756;2023-04-03T11:26:00;6.72;;;2.67;;
73136;SDS011;67767;45.636;11.756;2023-04-03T11:28:33;7.45;;;2.50;;
73136;SDS011;67767;45.636;11.756;2023-04-03T11:31:02;6.47;;;2.37;;
73136;SDS011;67767;45.636;11.756;2023-04-03T11:33:37;4.88;;;2.40;;
73136;SDS011;67767;45.636;11.756;2023-04-03T11:36:25;8.07;;;3.60;;
73136;SDS011;67767;45.636;11.756;2023-04-03T11:38:56;6.15;;;2.40;;
73136;SDS011;67767;45.636;11.756;2023-04-03T11:41:26;5.77;;;2.50;;
73136;SDS011;67767;45.636;11.756;2023-04-03T11:44:00;7.13;;;2.40;;
73136;SDS011;67767;45.636;11.756;2023-04-03T12:05:54;8.23;;;2.30;;
73136;SDS011;67767;45.636;11.756;2023-04-03T12:16:26;6.38;;;2.33;;
73136;SDS011;67767;45.636;11.756;2023-04-03T12:26:51;6.13;;;2.40;;
73136;SDS011;67767;45.636;11.756;2023-04-03T12:32:06;5.68;;;2.00;;
73136;SDS011;67767;45.636;11.756;2023-04-03T12:48:48;9.67;;;2.50;;
73136;SDS011;67767;45.636;11.756;2023-04-03T12:51:27;4.80;;;2.15;;
73136;SDS011;67767;45.636;11.756;2023-04-03T12:54:02;6.28;;;2.70;;
73136;SDS011;67767;45.636;11.756;2023-04-03T12:56:38;6.97;;;2.40;;
73136;SDS011;67767;45.636;11.756;2023-04-03T13:01:52;4.53;;;2.13;;
73136;SDS011;67767;45.636;11.756;2023-04-03T13:04:22;5.68;;;2.30;;
73136;SDS011;67767;45.636;11.756;2023-04-03T13:06:49;5.45;;;1.88;;
73136;SDS011;67767;45.636;11.756;2023-04-03T13:09:20;4.20;;;2.00;;
73136;SDS011;67767;45.636;11.756;2023-04-03T13:11:47;4.47;;;2.13;;
73136;SDS011;67767;45.636;11.756;2023-04-03T13:14:22;4.40;;;2.10;;
73136;SDS011;67767;45.636;11.756;2023-04-03T13:19:40;3.97;;;2.20;;
73136;SDS011;67767;45.636;11.756;2023-04-03T13:22:08;5.50;;;2.67;;
73136;SDS011;67767;45.636;11.756;2023-04-03T13:24:44;4.88;;;2.30;;
73136;SDS011;67767;45.636;11.756;2023-04-03T13:27:13;5.67;;;2.67;;
73136;SDS011;67767;45.636;11.756;2023-04-03T13:29:39;3.95;;;2.17;;
73136;SDS011;67767;45.636;11.756;2023-04-03T13:32:05;5.28;;;2.40;;
73136;SDS011;67767;45.636;11.756;2023-04-03T13:34:38;4.05;;;2.22;;
73136;SDS011;67767;45.636;11.756;2023-04-03T13:37:11;5.22;;;2.53;;
73136;SDS011;67767;45.636;11.756;2023-04-03T13:42:28;6.50;;;2.85;;
73136;SDS011;67767;45.636;11.756;2023-04-03T13:47:45;7.55;;;2.70;;
73136;SDS011;67767;45.636;11.756;2023-04-03T13:50:20;6.88;;;3.95;;
73136;SDS011;67767;45.636;11.756;2023-04-03T13:52:49;5.37;;;2.23;;
73136;SDS011;67767;45.636;11.756;2023-04-03T13:57:55;5.20;;;2.75;;
73136;SDS011;67767;45.636;11.756;2023-04-03T14:00:45;9.35;;;3.45;;
73136;SDS011;67767;45.636;11.756;2023-04-03T14:05:47;5.50;;;2.70;;
73136;SDS011;67767;45.636;11.756;2023-04-03T14:08:13;6.07;;;2.50;;
73136;SDS011;67767;45.636;11.756;2023-04-03T14:10:39;6.90;;;2.85;;
73136;SDS011;67767;45.636;11.756;2023-04-03T14:13:05;7.00;;;2.80;;
73136;SDS011;67767;45.636;11.756;2023-04-03T14:15:31;5.90;;;2.77;;
73136;SDS011;67767;45.636;11.756;2023-04-03T14:17:57;5.63;;;2.25;;
73136;SDS011;67767;45.636;11.756;2023-04-03T14:20:25;6.72;;;2.47;;
73136;SDS011;67767;45.636;11.756;2023-04-03T14:22:52;5.53;;;2.30;;
73136;SDS011;67767;45.636;11.756;2023-04-03T14:25:19;7.97;;;2.72;;
73136;SDS011;67767;45.636;11.756;2023-04-03T14:27:46;9.67;;;3.07;;
73136;SDS011;67767;45.636;11.756;2023-04-03T14:30:19;5.75;;;2.60;;
73136;SDS011;67767;45.636;11.756;2023-04-03T14:32:49;7.07;;;2.22;;
73136;SDS011;67767;45.636;11.756;2023-04-03T14:35:16;6.07;;;2.05;;
73136;SDS011;67767;45.636;11.756;2023-04-03T14:37:43;5.90;;;2.22;;
73136;SDS011;67767;45.636;11.756;2023-04-03T14:40:14;5.90;;;2.40;;
73136;SDS011;67767;45.636;11.756;2023-04-03T14:42:42;7.53;;;2.60;;
73136;SDS011;67767;45.636;11.756;2023-04-03T14:45:09;9.43;;;2.50;;
73136;SDS011;67767;45.636;11.756;2023-04-03T14:47:44;8.88;;;2.55;;
73136;SDS011;67767;45.636;11.756;2023-04-03T14:50:17;9.83;;;1.53;;
73136;SDS011;67767;45.636;11.756;2023-04-03T14:52:49;7.82;;;1.65;;
73136;SDS011;67767;45.636;11.756;2023-04-03T14:55:17;7.07;;;1.40;;
73136;SDS011;67767;45.636;11.756;2023-04-03T14:57:44;6.32;;;1.50;;
73136;SDS011;67767;45.636;11.756;2023-04-03T15:00:15;6.93;;;1.30;;
73136;SDS011;67767;45.636;11.756;2023-04-03T15:02:46;8.10;;;1.83;;
73136;SDS011;67767;45.636;11.756;2023-04-03T15:05:13;3.78;;;1.13;;
73136;SDS011;67767;45.636;11.756;2023-04-03T15:12:44;6.53;;;1.20;;
73136;SDS011;67767;45.636;11.756;2023-04-03T15:15:11;7.10;;;1.20;;
73136;SDS011;67767;45.636;11.756;2023-04-03T15:17:37;6.60;;;1.23;;
73136;SDS011;67767;45.636;11.756;2023-04-03T15:20:05;7.85;;;1.13;;
73136;SDS011;67767;45.636;11.756;2023-04-03T15:22:51;12.65;;;1.45;;
73136;SDS011;67767;45.636;11.756;2023-04-03T15:25:17;4.13;;;1.00;;
73136;SDS011;67767;45.636;11.756;2023-04-03T15:27:43;4.57;;;1.20;;
73136;SDS011;67767;45.636;11.756;2023-04-03T15:30:13;13.18;;;1.83;;
73136;SDS011;67767;45.636;11.756;2023-04-03T15:32:41;6.05;;;1.52;;
73136;SDS011;67767;45.636;11.756;2023-04-03T15:35:07;6.80;;;1.00;;
73136;SDS011;67767;45.636;11.756;2023-04-03T15:37:33;6.93;;;1.10;;
73136;SDS011;67767;45.636;11.756;2023-04-03T15:39:58;5.85;;;1.25;;
73136;SDS011;67767;45.636;11.756;2023-04-03T15:42:24;5.50;;;1.30;;
73136;SDS011;67767;45.636;11.756;2023-04-03T15:44:50;5.03;;;1.50;;
73136;SDS011;67767;45.636;11.756;2023-04-03T15:47:15;6.70;;;1.90;;
73136;SDS011;67767;45.636;11.756;2023-04-03T15:49:41;9.27;;;1.77;;
73136;SDS011;67767;45.636;11.756;2023-04-03T15:52:07;8.15;;;1.45;;
73136;SDS011;67767;45.636;11.756;2023-04-03T15:54:33;4.87;;;1.20;;
73136;SDS011;67767;45.636;11.756;2023-04-03T15:56:58;5.53;;;1.27;;
73136;SDS011;67767;45.636;11.756;2023-04-03T15:59:24;6.53;;;1.80;;
73136;SDS011;67767;45.636;11.756;2023-04-03T16:01:50;7.53;;;1.70;;
73136;SDS011;67767;45.636;11.756;2023-04-03T16:04:17;4.87;;;1.60;;
73136;SDS011;67767;45.636;11.756;2023-04-03T16:06:45;5.95;;;1.20;;
73136;SDS011;67767;45.636;11.756;2023-04-03T16:09:11;6.82;;;1.75;;
73136;SDS011;67767;45.636;11.756;2023-04-03T16:11:37;8.33;;;1.80;;
73136;SDS011;67767;45.636;11.756;2023-04-03T16:14:05;10.02;;;2.72;;
73136;SDS011;67767;45.636;11.756;2023-04-03T16:16:31;6.50;;;2.30;;
73136;SDS011;67767;45.636;11.756;2023-04-03T16:18:57;3.65;;;1.23;;
73136;SDS011;67767;45.636;11.756;2023-04-03T16:21:23;6.97;;;1.40;;
73136;SDS011;67767;45.636;11.756;2023-04-03T16:23:49;7.25;;;1.88;;
73136;SDS011;67767;45.636;11.756;2023-04-03T16:26:15;4.60;;;1.15;;
73136;SDS011;67767;45.636;11.756;2023-04-03T16:28:42;6.45;;;1.20;;
73136;SDS011;67767;45.636;11.756;2023-04-03T16:31:08;7.13;;;1.30;;
73136;SDS011;67767;45.636;11.756;2023-04-03T16:33:35;4.72;;;1.10;;
73136;SDS011;67767;45.636;11.756;2023-04-03T16:36:01;6.13;;;1.48;;